Time;durP1;ratioP1;P1;durP2;ratioP2;P2;SDS_P1;SDS_P2;PMS_P1;PMS_P2;Temp;Humidity;BMP_temperature;BMP_pressure;BME280_temperature;BME280_humidity;BME280_pressure;Samples;Min_cycle;Max_cycle;Signal;HPM_P1;HPM_P2
2023/03/21 00:00:37;;;;;;;29.42;26.33;;;;;;;6.49;100.00;101430.47;5058632;28;20228;-46
2023/03/21 00:03:03;;;;;;;26.48;23.80;;;;;;;6.53;100.00;101432.19;5043106;28;20705;-49
2023/03/21 00:05:29;;;;;;;28.63;25.52;;;;;;;6.49;100.00;101433.13;5058835;28;20241;-49
2023/03/21 00:07:54;;;;;;;27.67;24.77;;;;;;;6.46;100.00;101426.06;5056612;28;20266;-48
2023/03/21 00:10:20;;;;;;;27.02;24.17;;;;;;;6.50;100.00;101429.56;5060463;28;20187;-49
2023/03/21 00:12:49;;;;;;;25.80;23.00;;;;;;;6.52;100.00;101433.97;5056005;28;20190;-48
2023/03/21 00:15:17;;;;;;;26.77;23.95;;;;;;;6.48;100.00;101432.25;5043281;28;20222;-49
2023/03/21 00:17:43;;;;;;;24.83;22.23;;;;;;;6.48;100.00;101426.91;5058966;28;20923;-49
2023/03/21 00:20:14;;;;;;;26.13;23.35;;;;;;;6.55;100.00;101428.59;5054683;28;20630;-47
2023/03/21 00:22:40;;;;;;;26.02;23.35;;;;;;;6.60;100.00;101429.44;5057579;28;20276;-48
2023/03/21 00:25:09;;;;;;;26.23;23.52;;;;;;;6.58;100.00;101423.25;5057310;28;20321;-49
2023/03/21 00:27:35;;;;;;;26.48;23.75;;;;;;;6.49;100.00;101422.47;5059517;28;20210;-48
2023/03/21 00:30:01;;;;;;;26.33;23.50;;;;;;;6.49;100.00;101426.00;5038452;28;20194;-48
2023/03/21 00:32:27;;;;;;;26.38;23.60;;;;;;;6.48;100.00;101426.03;5053474;28;20550;-49
2023/03/21 00:34:52;;;;;;;27.30;24.38;;;;;;;6.44;100.00;101424.31;5054013;28;20203;-50
2023/03/21 00:37:18;;;;;;;27.50;24.60;;;;;;;6.49;100.00;101412.69;5058936;28;20266;-48
2023/03/21 00:39:47;;;;;;;29.27;25.30;;;;;;;6.50;100.00;101419.81;5057084;28;20658;-51
2023/03/21 00:42:16;;;;;;;25.83;23.13;;;;;;;6.51;100.00;101413.56;5058109;28;20623;-51
2023/03/21 00:44:43;;;;;;;32.53;25.95;;;;;;;6.46;100.00;101399.44;5039978;28;20231;-47
2023/03/21 00:47:10;;;;;;;26.77;23.90;;;;;;;6.55;100.00;101409.09;5054670;28;20188;-50
2023/03/21 00:49:37;;;;;;;27.23;24.25;;;;;;;6.60;100.00;101413.47;5038997;28;20202;-48
2023/03/21 00:52:08;;;;;;;29.67;25.88;;;;;;;6.51;100.00;101412.69;5049912;28;20195;-45
2023/03/21 00:54:35;;;;;;;30.23;26.67;;;;;;;6.51;100.00;101410.91;5040153;28;20219;-44
2023/03/21 00:57:02;;;;;;;31.73;27.50;;;;;;;6.47;100.00;101409.19;5042794;28;20187;-43
2023/03/21 00:59:29;;;;;;;29.77;26.65;;;;;;;6.53;100.00;101409.09;5061023;28;20194;-43
2023/03/21 01:01:55;;;;;;;29.52;25.95;;;;;;;6.47;100.00;101414.53;5065042;28;20207;-44
2023/03/21 01:04:25;;;;;;;32.95;27.85;;;;;;;6.43;100.00;101407.47;5039441;28;20713;-43
2023/03/21 01:06:52;;;;;;;33.50;27.10;;;;;;;6.51;100.00;101408.25;5039821;28;20274;-45
2023/03/21 01:09:21;;;;;;;29.33;25.60;;;;;;;6.46;100.00;101404.75;5056333;28;20179;-44
2023/03/21 01:11:48;;;;;;;29.45;25.58;;;;;;;6.44;100.00;101403.91;5055470;28;20270;-44
2023/03/21 01:14:15;;;;;;;28.98;25.88;;;;;;;6.47;100.00;101409.19;5040725;28;20590;-43
2023/03/21 01:16:41;;;;;;;31.65;26.20;;;;;;;6.44;100.00;101409.22;5061332;28;20216;-44
2023/03/21 01:19:11;;;;;;;30.75;26.17;;;;;;;6.46;100.00;101407.41;5047121;28;20292;-42
2023/03/21 01:21:37;;;;;;;32.13;27.10;;;;;;;6.48;100.00;101407.41;5038551;28;20218;-42
2023/03/21 01:24:02;;;;;;;32.50;26.23;;;;;;;6.47;100.00;101406.53;5058929;28;20586;-44
2023/03/21 01:26:28;;;;;;;33.17;27.25;;;;;;;6.47;100.00;101400.31;5059232;28;20221;-45
2023/03/21 01:28:54;;;;;;;34.20;27.27;;;;;;;6.47;100.00;101401.22;5040946;28;20191;-42
2023/03/21 01:31:19;;;;;;;35.58;27.38;;;;;;;6.47;100.00;101397.66;5045035;28;20200;-42
2023/03/21 01:33:45;;;;;;;32.67;26.60;;;;;;;6.50;100.00;101400.28;5057913;28;20284;-43
2023/03/21 01:36:20;;;;;;;31.80;26.92;;;;;;;6.48;100.00;101397.63;5061077;28;20524;-43
2023/03/21 01:38:48;;;;;;;34.53;26.35;;;;;;;6.40;100.00;101394.19;5039209;28;20196;-42
2023/03/21 01:41:19;;;;;;;34.45;27.10;;;;;;;6.38;100.00;101388.00;5032425;28;20829;-43
2023/03/21 01:43:45;;;;;;;30.55;26.05;;;;;;;6.43;100.00;101394.16;5040334;28;20189;-44
2023/03/21 01:46:34;;;;;;;31.52;25.60;;;;;;;6.41;100.00;101395.97;5040388;28;20191;-43
2023/03/21 01:49:46;;;;;;;35.78;26.25;;;;;;;6.38;100.00;101395.97;5006207;28;20563;-42
2023/03/21 01:52:36;;;;;;;34.33;25.65;;;;;;;6.40;100.00;101392.41;4978871;28;20234;-43
2023/03/21 01:55:05;;;;;;;33.97;26.25;;;;;;;6.37;100.00;101388.91;5022563;28;20277;-43
2023/03/21 01:57:45;;;;;;;36.13;26.45;;;;;;;6.35;100.00;101396.03;5049296;28;20205;-42
2023/03/21 02:00:12;;;;;;;36.13;26.95;;;;;;;6.39;100.00;101387.13;5047335;28;20197;-43
2023/03/21 02:02:58;;;;;;;38.72;27.40;;;;;;;6.47;100.00;101395.91;5056469;28;20199;-42
2023/03/21 02:06:00;;;;;;;38.95;27.63;;;;;;;6.40;100.00;101389.72;5041882;28;20211;-44
2023/03/21 02:08:32;;;;;;;39.60;26.60;;;;;;;6.40;100.00;101389.72;5049311;23;20242;-49
2023/03/21 02:10:58;;;;;;;37.08;27.52;;;;;;;6.43;100.00;101386.19;5046269;28;20617;-48
2023/03/21 02:13:36;;;;;;;35.35;26.40;;;;;;;6.46;100.00;101385.25;5043823;28;20182;-48
2023/03/21 02:16:24;;;;;;;36.92;26.98;;;;;;;6.42;100.00;101391.50;5038341;28;20192;-48
2023/03/21 02:19:18;;;;;;;38.88;26.02;;;;;;;6.47;100.00;101390.56;5032821;28;20188;-46
2023/03/21 02:21:47;;;;;;;38.47;27.75;;;;;;;6.46;100.00;101388.78;5036754;28;20210;-47
2023/03/21 02:24:25;;;;;;;38.63;27.45;;;;;;;6.49;100.00;101386.06;5035136;28;20219;-47
2023/03/21 02:26:55;;;;;;;39.70;27.60;;;;;;;6.47;100.00;101393.22;5035201;28;20190;-47
2023/03/21 02:29:40;;;;;;;39.67;27.63;;;;;;;6.49;100.00;101380.75;5043635;28;20184;-47
2023/03/21 02:32:17;;;;;;;37.15;26.92;;;;;;;6.49;100.00;101375.44;5043260;28;20622;-48
2023/03/21 02:35:10;;;;;;;37.25;27.73;;;;;;;6.54;100.00;101378.94;5034462;28;20203;-47
2023/03/21 02:37:43;;;;;;;35.85;26.75;;;;;;;6.53;100.00;101371.84;5047273;28;20191;-44
2023/03/21 02:40:19;;;;;;;33.60;25.30;;;;;;;6.63;100.00;101371.75;5047479;28;20184;-45
2023/03/21 02:43:07;;;;;;;39.85;27.33;;;;;;;6.57;100.00;101370.91;5047445;28;20187;-48
2023/03/21 02:45:55;;;;;;;44.30;29.10;;;;;;;6.46;100.00;101367.50;5047567;28;20628;-47
2023/03/21 02:48:31;;;;;;;40.10;28.38;;;;;;;6.44;100.00;101373.75;5031998;28;20188;-47
2023/03/21 02:50:59;;;;;;;38.63;28.20;;;;;;;6.47;100.00;101357.72;5032684;28;20167;-45
2023/03/21 02:53:31;;;;;;;36.78;26.88;;;;;;;6.53;100.00;101363.84;5032279;28;20345;-49
2023/03/21 02:55:59;;;;;;;36.47;27.75;;;;;;;6.49;100.00;101362.13;5047544;28;20640;-48
2023/03/21 02:58:27;;;;;;;40.53;27.85;;;;;;;6.51;100.00;101354.13;5047422;28;20183;-45
2023/03/21 03:00:57;;;;;;;39.05;28.05;;;;;;;6.53;100.00;101366.50;5047121;28;20175;-43
2023/03/21 03:03:31;;;;;;;39.33;28.67;;;;;;;6.42;100.00;101364.91;5047414;28;20171;-44
2023/03/21 03:06:00;;;;;;;39.90;28.65;;;;;;;6.42;100.00;101362.22;5047187;28;20203;-43
2023/03/21 03:08:41;;;;;;;41.42;29.23;;;;;;;6.42;100.00;101364.91;5046948;28;20658;-44
2023/03/21 03:11:22;;;;;;;38.40;27.38;;;;;;;6.40;100.00;101356.91;5032233;28;20188;-44
2023/03/21 03:14:01;;;;;;;42.40;28.90;;;;;;;6.45;100.00;101356.84;5030257;28;20813;-43
2023/03/21 03:16:42;;;;;;;40.60;27.65;;;;;;;6.41;100.00;101356.03;5030597;28;20626;-44
2023/03/21 03:19:13;;;;;;;41.08;28.27;;;;;;;6.43;100.00;101350.66;5031545;28;20306;-49
2023/03/21 03:21:41;;;;;;;43.38;29.95;;;;;;;6.41;100.00;101345.38;5031887;28;20238;-47
2023/03/21 03:24:31;;;;;;;43.72;29.48;;;;;;;6.41;100.00;101353.38;5030827;28;20326;-47
2023/03/21 03:27:14;;;;;;;42.80;28.17;;;;;;;6.45;100.00;101355.09;5030265;28;20271;-45
2023/03/21 03:29:43;;;;;;;42.53;29.27;;;;;;;6.38;100.00;101351.63;5030616;28;20173;-46
2023/03/21 03:32:35;;;;;;;40.42;28.52;;;;;;;6.45;100.00;101346.22;5030222;28;20180;-42
2023/03/21 03:35:03;;;;;;;38.80;28.00;;;;;;;6.49;100.00;101347.94;5031642;28;20258;-49
2023/03/21 03:37:33;;;;;;;42.28;30.10;;;;;;;6.44;100.00;101340.00;5030437;28;20198;-45
2023/03/21 03:40:10;;;;;;;39.28;28.52;;;;;;;6.49;100.00;101347.94;5030362;28;20651;-46
2023/03/21 03:42:50;;;;;;;40.28;29.20;;;;;;;6.51;100.00;101346.13;5029629;28;20566;-45
2023/03/21 03:45:43;;;;;;;43.50;29.70;;;;;;;6.44;100.00;101339.13;5029902;28;20204;-44
2023/03/21 03:48:29;;;;;;;36.00;27.65;;;;;;;6.48;100.00;101341.75;5030099;28;20300;-43
2023/03/21 03:51:11;;;;;;;35.85;27.83;;;;;;;6.42;100.00;101343.59;5040614;28;20255;-49
2023/03/21 03:54:02;;;;;;;41.13;27.73;;;;;;;6.39;100.00;101337.41;5038619;28;20305;-50
2023/03/21 03:56:29;;;;;;;38.13;26.92;;;;;;;6.44;100.00;101341.81;5038429;28;20262;-48
2023/03/21 03:58:56;;;;;;;37.50;27.70;;;;;;;6.47;100.00;101340.00;5038185;28;20183;-48
2023/03/21 04:01:33;;;;;;;38.88;26.88;;;;;;;6.47;100.00;101339.09;5039799;28;20237;-50
2023/03/21 04:04:00;;;;;;;37.97;27.15;;;;;;;6.41;100.00;101329.41;5038051;28;20545;-50
2023/03/21 04:06:27;;;;;;;36.25;27.25;;;;;;;6.44;100.00;101331.16;5046264;28;20241;-49
2023/03/21 04:08:55;;;;;;;41.80;27.65;;;;;;;6.37;100.00;101333.03;5039310;28;20219;-50
2023/03/21 04:11:21;;;;;;;38.10;27.23;;;;;;;6.39;100.00;101332.09;5038343;28;20183;-47
2023/03/21 04:13:51;;;;;;;36.20;26.55;;;;;;;6.39;100.00;101325.91;5034164;28;20345;-48
2023/03/21 04:16:22;;;;;;;38.53;27.17;;;;;;;6.39;100.00;101328.56;5037645;28;20192;-47
2023/03/21 04:18:48;;;;;;;40.33;27.98;;;;;;;6.38;100.00;101329.44;5042210;28;20203;-47
2023/03/21 04:21:17;;;;;;;33.70;26.10;;;;;;;6.47;100.00;101331.09;5038597;28;20196;-50
2023/03/21 04:23:42;;;;;;;40.15;28.10;;;;;;;6.42;100.00;101338.28;5040417;28;20870;-47
2023/03/21 04:26:08;;;;;;;35.88;27.05;;;;;;;6.48;100.00;101343.53;5038232;28;20291;-50
2023/03/21 04:28:39;;;;;;;41.08;26.95;;;;;;;6.49;100.00;101348.81;5042621;28;20270;-46
2023/03/21 04:31:33;;;;;;;39.50;29.00;;;;;;;6.53;100.00;101334.56;5018028;28;20662;-45
2023/03/21 04:34:11;;;;;;;38.67;27.63;;;;;;;6.51;100.00;101332.81;5045325;28;20610;-44
2023/03/21 04:36:45;;;;;;;37.00;27.70;;;;;;;6.48;100.00;101327.56;5045853;28;20830;-45
2023/03/21 04:39:13;;;;;;;42.30;28.52;;;;;;;6.43;100.00;101332.03;5039106;28;20194;-43
2023/03/21 04:41:42;;;;;;;42.72;29.80;;;;;;;6.44;100.00;101325.84;5048367;28;20207;-42
2023/03/21 04:44:08;;;;;;;43.08;28.92;;;;;;;6.46;100.00;101324.91;5049899;28;20570;-42
2023/03/21 04:46:35;;;;;;;46.65;30.08;;;;;;;6.52;100.00;101323.97;5043525;28;20715;-43
2023/03/21 04:49:01;;;;;;;42.30;30.77;;;;;;;6.47;100.00;101323.13;5043279;28;20220;-45
2023/03/21 04:51:26;;;;;;;44.92;30.55;;;;;;;6.48;100.00;101322.22;5033444;28;20180;-45
2023/03/21 04:53:56;;;;;;;37.85;28.42;;;;;;;6.56;100.00;101323.03;5046480;28;20232;-43
2023/03/21 04:56:29;;;;;;;44.15;29.88;;;;;;;6.49;100.00;101321.31;5044639;28;20220;-45
2023/03/21 04:58:56;;;;;;;43.08;29.88;;;;;;;6.51;100.00;101319.53;5048078;28;20183;-45
2023/03/21 05:01:21;;;;;;;46.92;31.48;;;;;;;6.45;100.00;101327.56;5047885;28;20207;-43
2023/03/21 05:03:47;;;;;;;45.63;31.55;;;;;;;6.47;100.00;101324.03;5045521;28;20538;-45
2023/03/21 05:06:13;;;;;;;49.40;32.00;;;;;;;6.47;100.00;101317.78;5035541;28;20662;-45
2023/03/21 05:08:40;;;;;;;42.75;30.33;;;;;;;6.51;100.00;101323.06;5049554;28;20282;-45
2023/03/21 05:11:06;;;;;;;47.10;31.42;;;;;;;6.52;100.00;101321.28;5051433;28;20190;-45
2023/03/21 05:13:32;;;;;;;47.35;31.30;;;;;;;6.60;100.00;101330.94;5038230;28;20241;-43
2023/03/21 05:15:57;;;;;;;41.50;29.40;;;;;;;6.59;100.00;101323.84;5056235;28;20260;-46
2023/03/21 05:18:26;;;;;;;45.72;30.08;;;;;;;6.57;100.00;101317.66;5053113;28;20668;-46
2023/03/21 05:21:03;;;;;;;49.30;31.60;;;;;;;6.54;100.00;101325.69;5034687;28;20214;-46
2023/03/21 05:23:30;;;;;;;47.55;30.35;;;;;;;6.53;100.00;101320.38;5044658;28;20237;-44
2023/03/21 05:25:56;;;;;;;44.83;29.55;;;;;;;6.52;100.00;101322.16;5058159;28;20199;-45
2023/03/21 05:28:35;;;;;;;53.28;31.85;;;;;;;6.52;100.00;101313.31;5037016;28;20273;-47
2023/03/21 05:31:05;;;;;;;46.67;30.10;;;;;;;6.55;100.00;101314.13;5043148;28;20190;-48
2023/03/21 05:33:32;;;;;;;46.17;31.15;;;;;;;6.60;100.00;101327.38;5052484;28;20186;-48
2023/03/21 05:35:57;;;;;;;48.97;31.02;;;;;;;6.52;100.00;101314.19;5055782;28;20245;-45
2023/03/21 05:38:27;;;;;;;44.63;30.92;;;;;;;6.57;100.00;101312.31;5039453;28;20174;-44
2023/03/21 05:40:53;;;;;;;47.47;30.55;;;;;;;6.56;100.00;101317.69;5042595;28;20187;-44
2023/03/21 05:43:19;;;;;;;48.83;31.67;;;;;;;6.55;100.00;101316.78;5044325;28;20194;-42
2023/03/21 05:45:47;;;;;;;49.08;30.85;;;;;;;6.57;100.00;101309.66;5039428;28;20595;-44
2023/03/21 05:48:14;;;;;;;47.78;30.13;;;;;;;6.63;100.00;101321.16;5042444;28;20226;-43
2023/03/21 05:51:01;;;;;;;49.13;31.88;;;;;;;6.55;100.00;101307.94;5050355;28;20223;-43
2023/03/21 05:53:26;;;;;;;45.17;30.05;;;;;;;6.56;100.00;101315.91;5054500;28;20187;-43
2023/03/21 05:55:52;;;;;;;44.28;29.50;;;;;;;6.64;100.00;101314.91;5047432;28;20229;-45
2023/03/21 05:58:38;;;;;;;50.92;31.92;;;;;;;6.62;100.00;101311.38;5047159;28;20177;-44
2023/03/21 06:01:03;;;;;;;48.63;30.83;;;;;;;6.67;100.00;101306.88;5053307;28;20551;-43
2023/03/21 06:03:33;;;;;;;53.35;31.48;;;;;;;6.68;100.00;101306.84;5040665;28;20199;-42
2023/03/21 06:06:05;;;;;;;46.15;29.33;;;;;;;6.72;100.00;101313.03;5028615;28;21219;-42
2023/03/21 06:08:47;;;;;;;48.88;30.80;;;;;;;6.67;100.00;101298.88;5054045;28;20193;-43
2023/03/21 06:11:25;;;;;;;43.97;29.13;;;;;;;6.68;100.00;101305.97;5046376;28;20179;-43
2023/03/21 06:13:59;;;;;;;44.80;29.00;;;;;;;6.73;100.00;101314.78;5059153;28;20207;-43
2023/03/21 06:16:27;;;;;;;39.25;26.75;;;;;;;6.74;100.00;101306.78;5037637;28;20194;-42
2023/03/21 06:18:53;;;;;;;45.53;28.48;;;;;;;6.74;100.00;101306.78;5041612;28;20503;-45
2023/03/21 06:21:32;;;;;;;45.00;28.88;;;;;;;6.74;100.00;101312.09;5052909;28;20912;-44
2023/03/21 06:23:57;;;;;;;38.58;27.38;;;;;;;6.83;100.00;101311.06;5042240;28;20233;-49
2023/03/21 06:26:23;;;;;;;42.60;27.20;;;;;;;6.87;100.00;101303.94;5044341;28;20191;-45
2023/03/21 06:28:52;;;;;;;42.65;28.10;;;;;;;6.83;100.00;101311.06;5051174;28;20179;-43
2023/03/21 06:31:21;;;;;;;43.95;28.58;;;;;;;6.79;100.00;101306.69;5050169;28;20206;-44
2023/03/21 06:33:47;;;;;;;42.75;27.58;;;;;;;6.82;100.00;101303.97;5036611;28;20704;-44
2023/03/21 06:36:14;;;;;;;38.28;25.95;;;;;;;6.91;100.00;101306.53;5036593;28;20206;-44
2023/03/21 06:38:40;;;;;;;43.75;27.85;;;;;;;6.93;100.00;101312.72;5049382;28;20194;-45
2023/03/21 06:41:06;;;;;;;44.47;28.48;;;;;;;6.96;100.00;101307.31;5053053;28;20236;-48
2023/03/21 06:43:39;;;;;;;42.55;27.85;;;;;;;6.92;100.00;101315.38;5046230;28;20187;-45
2023/03/21 06:46:04;;;;;;;48.35;31.63;;;;;;;6.96;100.00;101309.97;5044879;28;20186;-49
2023/03/21 06:48:31;;;;;;;45.25;28.85;;;;;;;6.96;100.00;101307.31;5029318;28;20667;-48
2023/03/21 06:50:56;;;;;;;37.03;25.83;;;;;;;6.90;100.00;101301.22;5016742;28;20172;-48
2023/03/21 06:53:26;;;;;;;40.13;26.30;;;;;;;6.94;100.00;101308.25;5049009;28;20268;-42
2023/03/21 06:56:13;;;;;;;39.50;27.20;;;;;;;7.01;100.00;101308.13;5053996;28;20203;-45
2023/03/21 06:58:40;;;;;;;33.88;24.05;;;;;;;7.08;100.00;101300.91;5048920;28;20187;-47
2023/03/21 07:01:13;;;;;;;38.58;27.30;;;;;;;7.06;100.00;101296.50;5042552;28;20206;-46
2023/03/21 07:03:49;;;;;;;41.05;27.13;;;;;;;7.15;100.00;101293.69;5054872;28;20190;-46
2023/03/21 07:06:18;;;;;;;36.92;26.45;;;;;;;7.28;100.00;101299.69;5042648;28;20183;-46
2023/03/21 07:08:44;;;;;;;42.92;28.60;;;;;;;7.23;100.00;101305.09;5061004;28;20195;-45
2023/03/21 07:11:09;;;;;;;43.65;29.40;;;;;;;7.21;100.00;101293.59;5046094;28;20194;-47
2023/03/21 07:13:35;;;;;;;44.20;29.70;;;;;;;7.33;100.00;101301.38;5050438;28;20179;-46
2023/03/21 07:16:03;;;;;;;52.30;32.08;;;;;;;7.39;100.00;101298.63;5033883;28;20183;-46
2023/03/21 07:18:29;;;;;;;50.45;32.25;;;;;;;7.40;100.00;101292.38;5059350;28;20186;-46
2023/03/21 07:20:55;;;;;;;48.20;31.00;;;;;;;7.36;100.00;101296.00;5044091;28;20200;-47
2023/03/21 07:23:24;;;;;;;56.08;35.20;;;;;;;7.32;100.00;101298.75;5043414;28;20188;-46
2023/03/21 07:25:51;;;;;;;52.97;33.63;;;;;;;7.28;100.00;101297.03;5058806;28;20681;-46
2023/03/21 07:28:18;;;;;;;52.38;33.08;;;;;;;7.36;100.00;101295.13;5042903;28;20673;-45
2023/03/21 07:30:44;;;;;;;48.13;32.33;;;;;;;7.39;100.00;101289.72;5040573;28;20225;-47
2023/03/21 07:33:11;;;;;;;52.08;33.75;;;;;;;7.42;100.00;101287.91;5038028;28;20256;-47
2023/03/21 07:35:37;;;;;;;51.30;32.58;;;;;;;7.61;100.00;101298.25;5051913;28;20250;-42
2023/03/21 07:38:05;;;;;;;50.03;33.80;;;;;;;7.71;100.00;101289.13;5037945;28;20614;-42
2023/03/21 07:40:32;;;;;;;46.95;30.00;;;;;;;7.76;100.00;101289.03;5044429;28;20602;-43
2023/03/21 07:42:58;;;;;;;42.22;29.90;;;;;;;7.96;100.00;101284.22;5053704;28;20285;-45
2023/03/21 07:45:32;;;;;;;42.25;29.88;;;;;;;7.89;100.00;101289.69;5048700;28;20232;-46
2023/03/21 07:47:58;;;;;;;38.78;28.88;;;;;;;7.83;100.00;101283.56;5041570;28;20572;-43
2023/03/21 07:50:23;;;;;;;38.65;27.75;;;;;;;7.80;100.00;101291.63;5063036;28;20183;-43
2023/03/21 07:52:49;;;;;;;38.92;28.80;;;;;;;7.87;100.00;101283.50;5056038;28;20179;-42
2023/03/21 07:55:16;;;;;;;40.85;29.08;;;;;;;7.77;100.00;101285.50;5041326;28;20214;-44
2023/03/21 07:57:41;;;;;;;35.38;27.95;;;;;;;7.80;100.00;101280.06;5062557;28;20187;-42
2023/03/21 08:00:08;;;;;;;35.42;27.55;;;;;;;7.82;100.00;101279.13;5050961;28;20171;-43
2023/03/21 08:02:41;;;;;;;35.78;27.75;;;;;;;7.88;100.00;101282.63;5069186;28;20194;-41
2023/03/21 08:05:07;;;;;;;35.08;26.52;;;;;;;7.98;100.00;101284.16;5064469;28;20222;-44
2023/03/21 08:07:32;;;;;;;35.83;26.30;;;;;;;7.92;100.00;101278.97;5058236;28;20286;-43
2023/03/21 08:09:57;;;;;;;34.67;26.48;;;;;;;7.95;100.00;101271.78;5059601;28;20211;-43
2023/03/21 08:12:23;;;;;;;33.50;26.23;;;;;;;7.82;100.00;101272.94;5068362;28;20183;-44
2023/03/21 08:14:49;;;;;;;36.58;26.30;;;;;;;7.88;100.00;101279.94;5052831;28;20284;-44
2023/03/21 08:17:14;;;;;;;33.65;24.67;;;;;;;7.95;100.00;101274.44;5070736;28;20652;-47
2023/03/21 08:19:40;;;;;;;33.70;25.63;;;;;;;7.91;100.00;101274.53;5069646;28;20181;-43
2023/03/21 08:22:06;;;;;;;32.03;24.30;;;;;;;7.91;100.00;101264.72;5069925;28;20209;-43
2023/03/21 08:24:32;;;;;;;32.97;25.00;;;;;;;7.89;100.00;101268.34;5070800;28;20194;-43
2023/03/21 08:27:00;;;;;;;36.60;24.50;;;;;;;7.92;100.00;101270.97;5070774;28;20736;-43
2023/03/21 08:29:26;;;;;;;32.92;25.40;;;;;;;8.04;100.00;101268.03;5070129;28;20178;-45
2023/03/21 08:31:52;;;;;;;33.60;25.13;;;;;;;8.01;100.00;101268.13;5070620;28;20210;-45
2023/03/21 08:34:18;;;;;;;31.50;25.17;;;;;;;8.06;100.00;101263.56;5070532;28;20252;-46
2023/03/21 08:36:44;;;;;;;34.47;26.30;;;;;;;8.04;100.00;101260.03;5069023;28;20166;-44
2023/03/21 08:39:09;;;;;;;39.10;27.70;;;;;;;7.98;100.00;101268.16;5069825;28;20613;-46
2023/03/21 08:41:36;;;;;;;38.65;27.17;;;;;;;7.93;100.00;101264.72;5068767;28;20273;-46
2023/03/21 08:44:04;;;;;;;38.42;29.17;;;;;;;7.97;100.00;101261.06;5070444;28;20203;-46
2023/03/21 08:46:31;;;;;;;40.90;28.88;;;;;;;7.96;100.00;101267.31;5069724;28;20235;-46
2023/03/21 08:48:58;;;;;;;38.83;28.27;;;;;;;7.95;100.00;101268.22;5052209;28;20194;-45
2023/03/21 08:51:23;;;;;;;38.47;29.35;;;;;;;7.99;100.00;101265.47;5069597;28;20179;-47
2023/03/21 08:53:52;;;;;;;40.03;29.58;;;;;;;7.90;100.00;101267.47;5070295;28;20208;-44
2023/03/21 08:56:17;;;;;;;40.50;29.77;;;;;;;7.93;100.00;101264.72;5069832;28;20162;-44
2023/03/21 08:58:43;;;;;;;43.92;30.88;;;;;;;7.92;100.00;101265.63;5070018;28;20181;-45
2023/03/21 09:01:14;;;;;;;40.25;29.77;;;;;;;8.00;100.00;101256.56;5052151;28;20492;-45
2023/03/21 09:03:41;;;;;;;43.83;31.70;;;;;;;7.91;100.00;101271.88;5069770;28;20373;-45
2023/03/21 09:06:09;;;;;;;39.17;29.75;;;;;;;7.99;100.00;101253.91;5069889;28;20190;-46
2023/03/21 09:08:36;;;;;;;42.30;29.17;;;;;;;8.00;100.00;101261.91;5069828;28;20269;-46
2023/03/21 09:11:02;;;;;;;41.90;28.83;;;;;;;7.98;100.00;101261.06;5069800;28;20174;-44
2023/03/21 09:13:27;;;;;;;40.40;29.35;;;;;;;8.01;100.00;101252.09;5069856;28;20181;-44
2023/03/21 09:15:56;;;;;;;34.65;27.33;;;;;;;8.07;100.00;101261.75;5069591;28;20229;-45
2023/03/21 09:18:37;;;;;;;36.70;27.92;;;;;;;8.09;100.00;101263.50;5069934;28;20675;-43
2023/03/21 09:21:11;;;;;;;32.75;26.73;;;;;;;8.04;100.00;101258.22;5069584;28;20552;-48
2023/03/21 09:23:38;;;;;;;35.97;26.70;;;;;;;8.16;100.00;101269.59;5069711;28;20163;-50
2023/03/21 09:26:05;;;;;;;33.20;27.02;;;;;;;8.17;100.00;101258.00;5033131;28;20605;-48
2023/03/21 09:28:31;;;;;;;34.25;27.35;;;;;;;8.25;100.00;101256.91;5039520;28;20207;-49
2023/03/21 09:30:59;;;;;;;35.45;27.23;;;;;;;8.21;100.00;101262.34;5058741;28;20263;-48
2023/03/21 09:33:27;;;;;;;29.63;24.38;;;;;;;8.18;100.00;101255.28;5058340;28;20560;-49
2023/03/21 09:35:53;;;;;;;33.40;27.35;;;;;;;8.18;100.00;101259.75;5056335;28;20207;-48
2023/03/21 09:38:18;;;;;;;34.20;26.20;;;;;;;8.27;100.00;101248.00;5058531;28;20179;-49
2023/03/21 09:41:06;;;;;;;34.53;26.70;;;;;;;8.24;100.00;101257.84;5059635;28;20191;-49
2023/03/21 09:43:52;;;;;;;34.65;26.42;;;;;;;8.17;100.00;101252.66;5061437;28;20198;-48
2023/03/21 09:46:27;;;;;;;32.40;26.83;;;;;;;8.25;100.00;101256.03;5060935;28;20265;-46
2023/03/21 09:49:00;;;;;;;33.33;27.83;;;;;;;8.27;100.00;101250.69;5065218;28;20186;-47
2023/03/21 09:51:31;;;;;;;32.35;28.35;;;;;;;8.27;100.00;101245.34;5060646;28;20182;-48
2023/03/21 09:54:02;;;;;;;34.13;27.30;;;;;;;8.36;100.00;101254.00;5059853;28;20210;-47
2023/03/21 09:56:30;;;;;;;36.38;28.80;;;;;;;8.39;100.00;101239.69;5064187;28;20520;-47
2023/03/21 09:58:59;;;;;;;34.70;28.80;;;;;;;8.44;100.00;101251.22;5060963;28;20187;-48
2023/03/21 10:01:34;;;;;;;32.63;27.77;;;;;;;8.43;100.00;101244.09;5056950;28;20207;-45
2023/03/21 10:04:03;;;;;;;33.22;28.27;;;;;;;8.39;100.00;101243.25;5061447;28;20203;-48
2023/03/21 10:06:30;;;;;;;33.92;27.63;;;;;;;8.34;100.00;101234.47;5059719;28;20184;-46
2023/03/21 10:09:06;;;;;;;34.75;29.08;;;;;;;8.38;100.00;101235.28;5060252;28;20190;-48
2023/03/21 10:11:47;;;;;;;34.80;28.20;;;;;;;8.33;100.00;101239.84;5059856;28;20182;-48
2023/03/21 10:14:31;;;;;;;35.47;28.67;;;;;;;8.32;100.00;101233.63;5048070;28;20298;-48
2023/03/21 10:17:26;;;;;;;38.20;30.27;;;;;;;8.40;100.00;101236.13;5061292;28;20261;-46
2023/03/21 10:20:14;;;;;;;36.85;30.15;;;;;;;8.48;100.00;101238.66;5057580;28;20182;-46
2023/03/21 10:22:40;;;;;;;36.67;29.40;;;;;;;8.49;100.00;101249.31;5058905;28;20191;-47
2023/03/21 10:25:07;;;;;;;37.35;30.20;;;;;;;8.56;100.00;101236.69;5060294;28;20302;-46
2023/03/21 10:27:35;;;;;;;33.38;29.08;;;;;;;8.53;100.00;101232.31;5058436;28;20665;-49
2023/03/21 10:30:06;;;;;;;36.17;29.35;;;;;;;8.46;100.00;101236.00;5059047;28;20270;-49
2023/03/21 10:32:32;;;;;;;32.22;27.40;;;;;;;8.59;100.00;101239.28;5064317;28;20170;-46
2023/03/21 10:34:59;;;;;;;37.30;29.80;;;;;;;8.53;100.00;101234.97;5055608;28;20199;-47
2023/03/21 10:37:25;;;;;;;36.53;29.95;;;;;;;8.53;100.00;101237.66;5060060;28;20178;-48
2023/03/21 10:39:54;;;;;;;39.22;29.92;;;;;;;8.53;100.00;101226.09;5062954;28;20306;-48
2023/03/21 10:42:31;;;;;;;36.80;29.80;;;;;;;8.61;100.00;101219.63;5067936;28;20217;-43
2023/03/21 10:44:57;;;;;;;35.90;29.83;;;;;;;8.61;100.00;101219.63;5057902;28;20249;-44
2023/03/21 10:47:26;;;;;;;37.60;30.35;;;;;;;8.71;100.00;101219.44;5056001;28;20190;-42
2023/03/21 10:49:52;;;;;;;36.92;28.55;;;;;;;8.68;100.00;101219.47;5052873;28;20175;-44
2023/03/21 10:52:21;;;;;;;36.47;29.33;;;;;;;8.69;100.00;101218.59;5060266;28;20194;-43
2023/03/21 10:54:47;;;;;;;33.95;27.55;;;;;;;8.67;100.00;101215.94;5053103;28;20618;-41
2023/03/21 10:57:22;;;;;;;33.40;28.25;;;;;;;8.59;100.00;101202.78;5058983;28;20649;-41
2023/03/21 11:00:00;;;;;;;32.80;28.42;;;;;;;8.71;100.00;101192.72;5058101;28;20181;-43
2023/03/21 11:02:34;;;;;;;34.13;27.65;;;;;;;8.84;100.00;101202.19;5067387;28;20190;-44
2023/03/21 11:05:21;;;;;;;30.75;26.65;;;;;;;8.77;100.00;101200.59;5065880;28;20203;-44
2023/03/21 11:07:55;;;;;;;28.95;25.48;;;;;;;8.69;100.00;101200.75;5055763;28;20203;-41
2023/03/21 11:10:33;;;;;;;30.35;25.10;;;;;;;8.75;100.00;101189.94;5051751;28;20171;-43
2023/03/21 11:13:17;;;;;;;29.98;25.58;;;;;;;8.79;100.00;101190.69;5053187;28;20186;-43
2023/03/21 11:15:54;;;;;;;29.50;24.80;;;;;;;8.82;100.00;101190.66;5062741;28;20206;-43
2023/03/21 11:18:23;;;;;;;31.67;24.63;;;;;;;8.76;100.00;101185.44;5063240;28;20661;-43
2023/03/21 11:20:54;;;;;;;27.60;24.13;;;;;;;8.73;100.00;101185.53;5058082;28;20198;-46
2023/03/21 11:23:24;;;;;;;29.95;22.65;;;;;;;8.77;100.00;101195.25;5043807;28;20221;-46
2023/03/21 11:25:50;;;;;;;28.88;23.65;;;;;;;8.79;100.00;101188.94;5045288;28;20211;-47